Time;durP1;ratioP1;P1;durP2;ratioP2;P2;SDS_P1;SDS_P2;PMS_P1;PMS_P2;Temp;Humidity;BMP_temperature;BMP_pressure;BME280_temperature;BME280_humidity;BME280_pressure;Samples;Min_cycle;Max_cycle;Signal;HPM_P1;HPM_P2
2023/03/08 00:01:31;;;;;;;5.55;1.83;;;-0.50;99.90;;;;;;5040374;28;20059;-66
2023/03/08 00:03:57;;;;;;;2.67;1.70;;;-0.50;99.90;;;;;;5038803;28;20036;-66
2023/03/08 00:06:24;;;;;;;3.30;1.65;;;-0.50;99.90;;;;;;5041138;28;20040;-66
2023/03/08 00:08:55;;;;;;;3.45;2.20;;;-0.50;99.90;;;;;;5039893;28;20037;-66
2023/03/08 00:11:20;;;;;;;5.57;2.30;;;-0.60;99.90;;;;;;5039568;28;20857;-65
2023/03/08 00:13:46;;;;;;;4.60;1.90;;;-0.60;99.90;;;;;;5033675;28;20073;-65
2023/03/08 00:16:12;;;;;;;3.90;1.98;;;-0.60;99.90;;;;;;5043238;28;20051;-66
2023/03/08 00:18:38;;;;;;;4.88;1.92;;;-0.60;99.90;;;;;;5045569;28;20037;-66
2023/03/08 00:21:13;;;;;;;4.13;2.03;;;-0.60;99.90;;;;;;5040592;28;20063;-66
2023/03/08 00:23:39;;;;;;;3.47;2.15;;;-0.60;99.90;;;;;;5042742;28;20036;-65
2023/03/08 00:26:05;;;;;;;3.50;2.13;;;-0.60;99.90;;;;;;5040691;28;20040;-66
2023/03/08 00:28:31;;;;;;;4.50;2.17;;;-0.60;99.90;;;;;;5041327;28;20507;-66
2023/03/08 00:31:05;;;;;;;5.03;1.90;;;-0.70;99.90;;;;;;5039627;28;20041;-66
2023/03/08 00:33:31;;;;;;;3.63;2.03;;;-0.60;99.90;;;;;;5055476;28;20119;-65
2023/03/08 00:36:15;;;;;;;1.90;1.70;;;-0.60;99.90;;;;;;5038473;28;20148;-66
2023/03/08 00:38:40;;;;;;;5.22;2.53;;;-0.60;99.90;;;;;;5033340;28;20079;-66
2023/03/08 00:41:07;;;;;;;2.55;2.03;;;-0.70;99.90;;;;;;5038614;28;20037;-66
2023/03/08 00:43:33;;;;;;;4.57;2.20;;;-0.70;99.90;;;;;;5042514;28;20507;-66
2023/03/08 00:45:58;;;;;;;5.07;2.20;;;-0.70;99.90;;;;;;5043907;28;20090;-66
2023/03/08 00:48:24;;;;;;;3.85;2.92;;;-0.80;99.90;;;;;;5037990;28;20037;-66
2023/03/08 00:50:50;;;;;;;5.35;3.22;;;-0.80;99.90;;;;;;5044130;28;20057;-65
2023/03/08 00:53:15;;;;;;;6.20;2.40;;;-0.90;99.90;;;;;;5040936;28;20032;-66
2023/03/08 00:55:49;;;;;;;2.83;2.10;;;-0.80;99.90;;;;;;5041028;28;20068;-65
2023/03/08 00:58:14;;;;;;;4.53;2.15;;;-0.90;99.90;;;;;;5040346;28;20044;-66
2023/03/08 01:00:40;;;;;;;4.80;2.05;;;-0.80;99.90;;;;;;5038794;28;20614;-66
2023/03/08 01:03:07;;;;;;;4.70;2.65;;;-0.90;99.90;;;;;;5039261;28;20578;-66
2023/03/08 01:05:37;;;;;;;4.93;2.35;;;-0.80;99.90;;;;;;5037848;28;20055;-65
2023/03/08 01:08:03;;;;;;;4.70;2.90;;;-0.80;99.90;;;;;;5039723;28;20469;-66
2023/03/08 01:10:29;;;;;;;6.38;2.70;;;-0.80;99.90;;;;;;5041390;28;20037;-66
2023/03/08 01:12:54;;;;;;;5.03;2.72;;;-0.90;99.90;;;;;;5038660;28;20037;-66
2023/03/08 01:15:20;;;;;;;2.67;2.17;;;-0.90;99.90;;;;;;5050055;28;20057;-65
2023/03/08 01:17:45;;;;;;;4.97;2.90;;;-0.90;99.90;;;;;;5030479;28;20042;-66
2023/03/08 01:20:11;;;;;;;3.50;2.28;;;-0.90;99.90;;;;;;5040265;28;20036;-66
2023/03/08 01:22:37;;;;;;;7.88;2.63;;;-0.90;99.90;;;;;;5031198;28;20041;-65
2023/03/08 01:25:03;;;;;;;4.82;2.90;;;-0.90;99.90;;;;;;5037252;28;20106;-66
2023/03/08 01:27:29;;;;;;;3.55;2.30;;;-1.00;99.90;;;;;;5040931;28;20080;-65
2023/03/08 01:29:54;;;;;;;4.35;2.30;;;-0.90;99.90;;;;;;5037962;28;20118;-65
2023/03/08 01:32:20;;;;;;;5.32;2.50;;;-1.00;99.90;;;;;;5049811;28;20041;-66
2023/03/08 01:34:45;;;;;;;5.90;2.58;;;-1.00;99.90;;;;;;5039294;28;20045;-66
2023/03/08 01:37:11;;;;;;;3.88;2.17;;;-1.00;99.90;;;;;;5032858;28;20107;-65
2023/03/08 01:39:36;;;;;;;6.40;2.60;;;-1.00;99.90;;;;;;5028164;28;20041;-65
2023/03/08 01:42:06;;;;;;;5.72;2.72;;;-0.90;99.90;;;;;;5033338;28;20098;-66
2023/03/08 01:44:52;;;;;;;6.57;2.35;;;-0.90;99.90;;;;;;5046376;28;20064;-66
2023/03/08 01:47:23;;;;;;;5.72;2.47;;;-1.00;99.90;;;;;;5040561;28;21264;-66
2023/03/08 01:49:51;;;;;;;3.60;2.45;;;-1.00;99.90;;;;;;5042374;28;20481;-65
2023/03/08 01:52:28;;;;;;;4.40;2.67;;;-1.00;99.90;;;;;;5042638;28;21833;-65
2023/03/08 01:54:59;;;;;;;4.47;2.60;;;-1.00;99.90;;;;;;5040142;28;20029;-66
2023/03/08 01:57:36;;;;;;;4.50;2.40;;;-1.10;99.90;;;;;;5041604;28;20111;-65
2023/03/08 02:00:13;;;;;;;8.70;2.53;;;-1.10;99.90;;;;;;5039724;28;20152;-65
2023/03/08 02:03:03;;;;;;;3.47;2.40;;;-1.00;99.90;;;;;;5040011;28;20059;-65
2023/03/08 02:05:30;;;;;;;4.15;2.47;;;-1.10;99.90;;;;;;5040594;28;20474;-65
2023/03/08 02:07:55;;;;;;;4.07;2.60;;;-1.00;99.90;;;;;;5039183;28;20077;-65
2023/03/08 02:10:21;;;;;;;7.93;2.50;;;-1.10;99.90;;;;;;5045166;28;20068;-65
2023/03/08 02:12:47;;;;;;;7.18;2.60;;;-1.10;99.90;;;;;;5045751;28;20045;-65
2023/03/08 02:15:16;;;;;;;6.68;2.75;;;-1.10;99.90;;;;;;5042885;28;20032;-65
2023/03/08 02:17:42;;;;;;;5.72;2.80;;;-1.10;99.90;;;;;;5042605;28;20045;-66
2023/03/08 02:20:31;;;;;;;4.18;2.72;;;-1.10;99.90;;;;;;5042135;28;20095;-65
2023/03/08 02:23:18;;;;;;;6.07;2.65;;;-1.10;99.90;;;;;;5048557;28;20040;-65
2023/03/08 02:25:54;;;;;;;6.15;2.97;;;-1.20;99.90;;;;;;5044521;28;20527;-65
2023/03/08 02:28:24;;;;;;;5.57;3.33;;;-1.20;99.90;;;;;;5040217;28;20048;-65
2023/03/08 02:30:50;;;;;;;5.07;3.10;;;-1.20;99.90;;;;;;5045812;28;20045;-65
2023/03/08 02:33:17;;;;;;;9.30;3.78;;;-1.20;99.90;;;;;;5044913;28;20033;-65
2023/03/08 02:35:44;;;;;;;5.60;3.70;;;-1.20;99.90;;;;;;5042135;28;20034;-65
2023/03/08 02:38:12;;;;;;;7.18;3.58;;;-1.20;99.90;;;;;;5038694;28;20036;-65
2023/03/08 02:40:38;;;;;;;7.32;4.32;;;-1.30;99.90;;;;;;5042407;28;20044;-65
2023/03/08 02:43:04;;;;;;;6.55;4.18;;;-1.30;99.90;;;;;;5043226;28;20128;-65
2023/03/08 02:45:30;;;;;;;5.63;4.15;;;-1.20;99.90;;;;;;5039384;28;20060;-65
2023/03/08 02:47:56;;;;;;;7.03;4.40;;;-1.20;99.90;;;;;;5048629;28;20045;-65
2023/03/08 02:50:21;;;;;;;8.43;4.50;;;-1.20;99.90;;;;;;5044531;28;20171;-65
2023/03/08 02:52:47;;;;;;;10.70;5.25;;;-1.20;99.90;;;;;;5047842;28;20119;-65
2023/03/08 02:55:12;;;;;;;8.90;4.72;;;-1.20;99.90;;;;;;5041974;28;20041;-66
2023/03/08 02:57:38;;;;;;;8.50;5.50;;;-1.20;99.90;;;;;;5044896;28;20044;-65
2023/03/08 03:00:04;;;;;;;10.20;6.15;;;-1.20;99.90;;;;;;5042398;28;20083;-66
2023/03/08 03:02:34;;;;;;;14.18;6.78;;;-1.30;99.90;;;;;;5025832;28;20039;-65
2023/03/08 03:05:02;;;;;;;10.27;5.68;;;-1.20;99.90;;;;;;5042629;28;20041;-65
2023/03/08 03:07:28;;;;;;;11.27;5.85;;;-1.30;99.90;;;;;;5047009;28;20029;-65
2023/03/08 03:09:53;;;;;;;8.70;5.70;;;-1.30;99.90;;;;;;5039283;28;20040;-65
2023/03/08 03:12:19;;;;;;;9.55;5.93;;;-1.20;99.90;;;;;;5043667;28;20033;-65
2023/03/08 03:14:44;;;;;;;10.43;6.82;;;-1.20;99.90;;;;;;5040909;28;20110;-65
2023/03/08 03:17:10;;;;;;;13.35;6.95;;;-1.20;99.90;;;;;;5047980;28;20043;-64
2023/03/08 03:19:36;;;;;;;12.20;6.15;;;-1.30;99.90;;;;;;5043090;28;20037;-65
2023/03/08 03:22:02;;;;;;;11.95;6.90;;;-1.30;99.90;;;;;;5043056;28;20045;-65
2023/03/08 03:24:27;;;;;;;11.65;6.57;;;-1.30;99.90;;;;;;5041191;28;20473;-65
2023/03/08 03:26:53;;;;;;;10.55;6.30;;;-1.30;99.90;;;;;;5044043;28;20041;-65
2023/03/08 03:29:19;;;;;;;11.75;6.75;;;-1.20;99.90;;;;;;5040793;28;20052;-65
2023/03/08 03:31:44;;;;;;;12.77;6.97;;;-1.30;99.90;;;;;;5043147;28;20040;-65
2023/03/08 03:34:10;;;;;;;13.45;7.20;;;-1.30;99.90;;;;;;5040803;28;20405;-65
2023/03/08 03:36:36;;;;;;;12.40;6.50;;;-1.30;99.90;;;;;;5042712;28;20040;-66
2023/03/08 03:39:01;;;;;;;11.63;7.05;;;-1.30;99.90;;;;;;5042723;28;20423;-65
2023/03/08 03:41:27;;;;;;;11.07;6.70;;;-1.30;99.90;;;;;;5044082;28;20033;-65
2023/03/08 03:43:52;;;;;;;12.00;7.57;;;-1.30;99.90;;;;;;5038511;28;20064;-65
2023/03/08 03:46:20;;;;;;;11.63;6.93;;;-1.30;99.90;;;;;;5043937;28;20037;-65
2023/03/08 03:48:46;;;;;;;13.55;6.65;;;-1.40;99.90;;;;;;5021011;28;20030;-65
2023/03/08 03:51:18;;;;;;;11.63;7.07;;;-1.40;99.90;;;;;;5043142;28;20092;-64
2023/03/08 03:53:43;;;;;;;12.70;7.18;;;-1.40;99.90;;;;;;5047922;28;20040;-65
2023/03/08 03:56:11;;;;;;;9.73;6.68;;;-1.40;99.90;;;;;;5042642;28;20029;-65
2023/03/08 03:58:36;;;;;;;10.80;6.88;;;-1.40;99.90;;;;;;5039354;28;20335;-64
2023/03/08 04:01:29;;;;;;;11.88;6.70;;;-1.40;99.90;;;;;;5042255;28;20041;-64
2023/03/08 04:03:55;;;;;;;10.48;7.00;;;-1.50;99.90;;;;;;5043469;28;20127;-65
2023/03/08 04:06:30;;;;;;;10.93;6.30;;;-1.50;99.90;;;;;;5043300;28;20040;-64
2023/03/08 04:09:13;;;;;;;13.65;7.10;;;-1.50;99.90;;;;;;5042373;28;20048;-65
2023/03/08 04:11:39;;;;;;;13.27;7.25;;;-1.50;99.90;;;;;;5044789;28;20084;-65
2023/03/08 04:14:06;;;;;;;11.50;6.95;;;-1.50;99.90;;;;;;5038306;28;20063;-65
2023/03/08 04:16:33;;;;;;;11.65;8.10;;;-1.60;99.90;;;;;;5039015;28;20032;-65
2023/03/08 04:19:02;;;;;;;15.65;8.13;;;-1.60;99.90;;;;;;5046921;28;20040;-64
2023/03/08 04:21:29;;;;;;;14.18;8.27;;;-1.50;99.90;;;;;;5036719;28;20079;-64
2023/03/08 04:23:55;;;;;;;14.63;8.48;;;-1.50;99.90;;;;;;5042693;28;20072;-64
2023/03/08 04:26:22;;;;;;;12.93;8.13;;;-1.60;99.90;;;;;;5039615;28;20029;-65
2023/03/08 04:28:47;;;;;;;12.20;8.75;;;-1.50;99.90;;;;;;5037882;28;20355;-65
2023/03/08 04:31:25;;;;;;;12.07;8.68;;;-1.50;99.90;;;;;;5040366;28;20041;-64
2023/03/08 04:33:51;;;;;;;15.45;8.48;;;-1.50;99.90;;;;;;5044325;28;20569;-65
2023/03/08 04:36:18;;;;;;;16.20;9.20;;;-1.50;99.90;;;;;;5043148;28;20033;-64
2023/03/08 04:38:44;;;;;;;12.88;8.35;;;-1.50;99.90;;;;;;5044623;28;22617;-64
2023/03/08 04:41:13;;;;;;;15.75;8.73;;;-1.50;99.90;;;;;;5045813;28;20488;-65
2023/03/08 04:43:42;;;;;;;11.77;8.27;;;-1.50;99.90;;;;;;5037786;28;20543;-65
2023/03/08 04:46:08;;;;;;;13.40;9.23;;;-1.40;99.90;;;;;;5039990;28;20044;-65
2023/03/08 04:48:34;;;;;;;13.20;8.70;;;-1.40;99.90;;;;;;5037673;28;20303;-64
2023/03/08 04:51:02;;;;;;;15.27;8.50;;;-1.40;99.90;;;;;;5049852;28;20033;-65
2023/03/08 04:53:29;;;;;;;12.50;8.57;;;-1.50;99.90;;;;;;5044855;28;20040;-65
2023/03/08 04:55:55;;;;;;;16.73;9.40;;;-1.50;99.90;;;;;;5041189;28;20072;-65
2023/03/08 04:58:21;;;;;;;15.98;10.38;;;-1.50;99.90;;;;;;5024468;28;20048;-65
2023/03/08 05:00:47;;;;;;;15.27;9.95;;;-1.40;99.90;;;;;;5037101;28;20088;-66
2023/03/08 05:03:13;;;;;;;17.30;11.23;;;-1.40;99.90;;;;;;5037504;28;20384;-65
2023/03/08 05:05:50;;;;;;;17.67;10.73;;;-1.40;99.90;;;;;;5042612;28;20052;-65
2023/03/08 05:08:17;;;;;;;15.82;10.07;;;-1.40;99.90;;;;;;5041036;28;20129;-66
2023/03/08 05:10:47;;;;;;;14.43;10.32;;;-1.40;99.90;;;;;;5046381;28;20076;-64
2023/03/08 05:13:13;;;;;;;13.55;9.70;;;-1.40;99.90;;;;;;5035537;28;20040;-66
2023/03/08 05:15:39;;;;;;;14.90;11.07;;;-1.40;99.90;;;;;;5041859;28;20301;-65
2023/03/08 05:18:04;;;;;;;16.98;11.20;;;-1.40;99.90;;;;;;5041864;28;20095;-65
2023/03/08 05:20:30;;;;;;;14.85;10.65;;;-1.40;99.90;;;;;;5041120;28;20041;-65
2023/03/08 05:22:55;;;;;;;17.27;10.48;;;-1.40;99.90;;;;;;5042191;28;20038;-65
2023/03/08 05:25:21;;;;;;;16.15;10.60;;;-1.40;99.90;;;;;;5035538;28;20091;-65
2023/03/08 05:27:47;;;;;;;16.13;10.82;;;-1.40;99.90;;;;;;5042672;28;20419;-64
2023/03/08 05:30:12;;;;;;;14.88;10.27;;;-1.50;99.90;;;;;;5034772;28;20037;-64
2023/03/08 05:32:38;;;;;;;15.75;10.23;;;-1.50;99.90;;;;;;5039810;28;20044;-64
2023/03/08 05:35:04;;;;;;;14.48;10.45;;;-1.60;99.90;;;;;;5033061;28;20500;-65
2023/03/08 05:37:29;;;;;;;13.82;10.27;;;-1.60;99.90;;;;;;5045119;28;20040;-65
2023/03/08 05:39:55;;;;;;;15.13;9.93;;;-1.70;99.90;;;;;;5046512;28;20052;-64
2023/03/08 05:42:20;;;;;;;14.27;9.98;;;-1.70;99.90;;;;;;5036065;28;20175;-65
2023/03/08 05:44:46;;;;;;;14.52;9.60;;;-1.70;99.90;;;;;;5039296;28;20115;-65
2023/03/08 05:47:12;;;;;;;15.45;10.68;;;-1.70;99.90;;;;;;5045096;28;20037;-65
2023/03/08 05:49:37;;;;;;;15.05;9.93;;;-1.70;99.90;;;;;;5046672;28;20045;-65
2023/03/08 05:52:03;;;;;;;15.93;10.23;;;-1.70;99.90;;;;;;5050508;28;20060;-65
2023/03/08 05:54:28;;;;;;;14.85;9.82;;;-1.70;99.90;;;;;;5046198;28;20080;-65
2023/03/08 05:56:54;;;;;;;17.23;10.98;;;-1.80;99.90;;;;;;5046133;28;20151;-65
2023/03/08 05:59:20;;;;;;;19.08;10.40;;;-1.80;99.90;;;;;;5040526;28;20061;-65
2023/03/08 06:01:45;;;;;;;19.33;11.30;;;-1.80;99.90;;;;;;5049926;28;20049;-65
2023/03/08 06:04:11;;;;;;;21.90;11.98;;;-1.80;99.90;;;;;;5048069;28;20032;-65
2023/03/08 06:06:36;;;;;;;20.33;11.63;;;-1.80;99.90;;;;;;5047981;28;20044;-65
2023/03/08 06:09:03;;;;;;;16.17;11.02;;;-1.70;99.90;;;;;;5044382;28;20345;-64
2023/03/08 06:11:28;;;;;;;18.95;12.15;;;-1.70;99.90;;;;;;5046393;28;20036;-65
2023/03/08 06:13:54;;;;;;;18.17;11.32;;;-1.70;99.90;;;;;;5037896;28;20040;-65
2023/03/08 06:16:20;;;;;;;16.67;11.27;;;-1.70;99.90;;;;;;5044101;28;20037;-65
2023/03/08 06:18:45;;;;;;;19.42;11.48;;;-1.70;99.90;;;;;;5045231;28;20033;-65
2023/03/08 06:21:16;;;;;;;16.13;11.00;;;-1.70;99.90;;;;;;5039362;28;20041;-65
2023/03/08 06:23:43;;;;;;;16.55;11.10;;;-1.70;99.90;;;;;;5040960;28;20434;-64
2023/03/08 06:26:10;;;;;;;14.63;10.77;;;-1.70;99.90;;;;;;5045423;28;20649;-65
2023/03/08 06:28:36;;;;;;;19.27;11.65;;;-1.70;99.90;;;;;;5044981;28;20037;-64
2023/03/08 06:31:02;;;;;;;18.65;11.55;;;-1.70;99.90;;;;;;5043456;28;20056;-65
2023/03/08 06:33:30;;;;;;;19.83;11.35;;;-1.70;99.90;;;;;;5044867;28;20124;-65
2023/03/08 06:36:12;;;;;;;17.15;11.25;;;-1.70;99.90;;;;;;5043360;28;20062;-65
2023/03/08 06:38:39;;;;;;;17.92;10.48;;;-1.70;99.90;;;;;;5041121;28;21999;-65
2023/03/08 06:41:06;;;;;;;19.98;11.10;;;-1.70;99.90;;;;;;5045358;28;20127;-65
2023/03/08 06:43:32;;;;;;;18.05;11.02;;;-1.60;99.90;;;;;;5039076;28;20476;-65
2023/03/08 06:46:01;;;;;;;17.98;11.68;;;-1.60;99.90;;;;;;5039861;28;20041;-65
2023/03/08 06:48:27;;;;;;;19.88;12.52;;;-1.50;99.90;;;;;;5043929;28;20394;-65
2023/03/08 06:50:52;;;;;;;24.25;13.52;;;-1.50;99.90;;;;;;5043780;28;20029;-66
2023/03/08 06:53:18;;;;;;;20.48;13.20;;;-1.50;99.90;;;;;;5040427;28;20033;-65
2023/03/08 06:55:43;;;;;;;23.33;12.90;;;-1.50;99.90;;;;;;5038490;28;20045;-66
2023/03/08 06:58:09;;;;;;;19.92;12.60;;;-1.40;99.90;;;;;;5048108;28;22760;-66
2023/03/08 07:00:35;;;;;;;17.35;11.88;;;-1.40;99.90;;;;;;5047518;28;20049;-65
2023/03/08 07:03:00;;;;;;;22.38;12.55;;;-1.20;99.90;;;;;;5053542;28;20041;-65
2023/03/08 07:05:27;;;;;;;19.20;12.70;;;-1.00;99.90;;;;;;5022030;28;20040;-65
2023/03/08 07:07:52;;;;;;;23.92;13.15;;;-0.80;99.90;;;;;;5051462;28;20609;-65
2023/03/08 07:10:19;;;;;;;16.73;12.20;;;-0.60;99.90;;;;;;5046810;28;20069;-65
2023/03/08 07:12:48;;;;;;;18.35;12.65;;;-0.50;99.90;;;;;;5044711;28;20068;-64
2023/03/08 07:15:17;;;;;;;16.30;11.60;;;-0.30;99.90;;;;;;5040334;28;20033;-65
2023/03/08 07:17:44;;;;;;;18.42;11.45;;;-0.20;99.90;;;;;;5044147;28;20078;-64
2023/03/08 07:20:12;;;;;;;17.00;10.32;;;0.00;99.90;;;;;;5035084;28;20041;-65
2023/03/08 07:22:38;;;;;;;15.02;9.40;;;0.10;99.90;;;;;;5045451;28;20045;-64
2023/03/08 07:25:04;;;;;;;11.73;9.15;;;0.20;99.90;;;;;;5045073;28;20037;-64
2023/03/08 07:27:29;;;;;;;13.30;8.68;;;0.20;99.90;;;;;;5045618;28;20037;-64
2023/03/08 07:29:55;;;;;;;10.65;8.60;;;0.30;99.90;;;;;;5043375;28;20040;-64
2023/03/08 07:32:22;;;;;;;11.48;8.30;;;0.20;99.90;;;;;;5044762;28;20034;-64
2023/03/08 07:34:48;;;;;;;13.63;8.95;;;0.20;99.90;;;;;;5042351;28;20037;-64
2023/03/08 07:37:16;;;;;;;11.43;8.65;;;0.30;99.90;;;;;;5045314;28;20033;-64
2023/03/08 07:39:42;;;;;;;10.38;8.13;;;0.40;99.90;;;;;;5045881;28;20052;-65
2023/03/08 07:42:09;;;;;;;12.35;7.75;;;0.40;99.90;;;;;;5050074;28;20041;-64
2023/03/08 07:44:38;;;;;;;9.23;7.70;;;0.50;99.90;;;;;;5041777;28;20036;-64
2023/03/08 07:47:07;;;;;;;9.40;7.53;;;0.40;99.90;;;;;;5046570;28;20843;-65
2023/03/08 07:49:33;;;;;;;11.57;7.72;;;0.20;99.90;;;;;;5035808;28;20456;-65
2023/03/08 07:51:58;;;;;;;9.95;6.95;;;0.20;99.90;;;;;;5050161;28;20048;-64
2023/03/08 07:54:25;;;;;;;11.15;7.22;;;0.10;99.90;;;;;;5044484;28;20045;-64
2023/03/08 07:56:52;;;;;;;9.75;7.60;;;0.10;99.90;;;;;;5044416;28;20076;-64
2023/03/08 07:59:17;;;;;;;8.93;7.68;;;0.20;99.90;;;;;;5030717;28;20087;-64
2023/03/08 08:01:43;;;;;;;11.63;7.65;;;0.30;99.90;;;;;;5050375;28;20124;-64
2023/03/08 08:04:11;;;;;;;11.80;7.85;;;0.30;99.90;;;;;;5036509;28;20041;-65
2023/03/08 08:06:37;;;;;;;10.18;8.07;;;0.30;99.90;;;;;;5039094;28;20049;-64
2023/03/08 08:09:03;;;;;;;12.20;7.95;;;0.30;99.90;;;;;;5042948;28;20515;-64
2023/03/08 08:11:29;;;;;;;10.38;8.05;;;0.20;99.90;;;;;;5050961;28;20044;-65
2023/03/08 08:13:55;;;;;;;9.48;7.95;;;0.20;99.90;;;;;;5044533;28;20041;-63
2023/03/08 08:16:20;;;;;;;12.57;7.88;;;0.30;99.90;;;;;;5047687;28;20120;-65
2023/03/08 08:18:46;;;;;;;11.18;8.32;;;0.30;99.90;;;;;;5043291;28;20040;-64
2023/03/08 08:21:14;;;;;;;11.80;7.88;;;0.40;99.90;;;;;;5029846;28;20140;-64
2023/03/08 08:23:41;;;;;;;11.85;7.97;;;0.40;99.90;;;;;;5035347;28;20045;-65
2023/03/08 08:26:10;;;;;;;9.90;8.10;;;0.40;99.90;;;;;;5015241;28;20552;-65
2023/03/08 08:28:38;;;;;;;14.73;7.72;;;0.50;99.90;;;;;;5039067;28;20040;-65
2023/03/08 08:31:07;;;;;;;9.85;7.88;;;0.60;99.90;;;;;;5044630;28;20481;-65
2023/03/08 08:33:33;;;;;;;10.20;7.38;;;0.60;99.90;;;;;;5042945;28;20980;-65
2023/03/08 08:36:01;;;;;;;11.43;7.60;;;0.70;99.90;;;;;;5041959;28;20087;-66
2023/03/08 08:38:26;;;;;;;10.18;7.82;;;0.70;99.90;;;;;;5043482;28;20052;-65
2023/03/08 08:40:52;;;;;;;13.18;8.20;;;0.70;99.90;;;;;;5039420;28;20393;-65
2023/03/08 08:43:18;;;;;;;10.35;8.10;;;0.70;99.90;;;;;;5036340;28;20090;-66
2023/03/08 08:45:47;;;;;;;10.27;7.78;;;0.80;99.90;;;;;;5046828;28;20047;-65
2023/03/08 08:48:13;;;;;;;11.30;8.70;;;0.80;99.90;;;;;;5044373;28;20041;-65
2023/03/08 08:50:40;;;;;;;11.18;8.27;;;0.80;99.90;;;;;;5044085;28;20095;-64
2023/03/08 08:53:07;;;;;;;12.77;8.52;;;0.80;99.90;;;;;;5041430;28;20037;-65
2023/03/08 08:55:33;;;;;;;11.98;8.20;;;0.80;99.90;;;;;;5037985;28;20042;-64
2023/03/08 08:58:00;;;;;;;11.90;8.50;;;0.90;99.90;;;;;;5040508;28;20029;-65
2023/03/08 09:00:25;;;;;;;12.07;8.23;;;0.90;99.90;;;;;;5029563;28;20057;-65
2023/03/08 09:02:51;;;;;;;11.32;8.68;;;1.00;99.90;;;;;;5040606;28;20048;-65
2023/03/08 09:05:16;;;;;;;13.52;8.35;;;0.90;99.90;;;;;;5045100;28;20531;-65
2023/03/08 09:07:42;;;;;;;12.23;8.98;;;1.00;99.90;;;;;;5042356;28;20033;-65
2023/03/08 09:10:09;;;;;;;14.25;9.65;;;1.00;99.90;;;;;;5038502;28;20041;-64
2023/03/08 09:12:34;;;;;;;12.25;8.90;;;1.10;99.90;;;;;;5041730;28;20042;-65
2023/03/08 09:15:00;;;;;;;14.60;9.63;;;1.10;99.90;;;;;;5036437;28;20033;-65
2023/03/08 09:17:25;;;;;;;12.82;9.85;;;1.20;99.90;;;;;;5035423;28;20389;-65
2023/03/08 09:19:51;;;;;;;12.95;9.65;;;1.20;99.90;;;;;;5051299;28;20496;-65
2023/03/08 09:22:17;;;;;;;13.82;9.43;;;1.20;99.90;;;;;;5052867;28;20041;-65
2023/03/08 09:24:44;;;;;;;12.48;9.52;;;1.30;99.90;;;;;;5045350;28;20044;-65
2023/03/08 09:27:10;;;;;;;15.15;10.90;;;1.40;99.90;;;;;;5044087;28;20493;-65
2023/03/08 09:29:37;;;;;;;17.08;11.27;;;1.40;99.90;;;;;;5042105;28;20033;-65
2023/03/08 09:32:04;;;;;;;16.30;10.82;;;1.40;99.90;;;;;;5043361;28;20091;-65
2023/03/08 09:34:30;;;;;;;16.63;12.00;;;1.40;99.90;;;;;;5041497;28;20037;-65
2023/03/08 09:36:55;;;;;;;13.57;10.63;;;1.50;99.90;;;;;;5044530;28;20037;-65
2023/03/08 09:39:21;;;;;;;16.13;11.63;;;1.50;99.90;;;;;;5044047;28;20037;-64
2023/03/08 09:41:58;;;;;;;20.30;14.27;;;1.60;99.90;;;;;;5055458;28;20041;-64
2023/03/08 09:44:44;;;;;;;23.73;15.85;;;1.60;99.90;;;;;;5049477;28;20033;-64
2023/03/08 09:47:32;;;;;;;27.35;15.57;;;1.60;99.90;;;;;;5045934;28;20381;-65
2023/03/08 09:50:12;;;;;;;26.15;15.52;;;1.50;99.90;;;;;;5033448;28;20132;-65
2023/03/08 09:52:42;;;;;;;27.73;15.90;;;1.40;99.90;;;;;;5048488;28;20098;-65
2023/03/08 09:55:31;;;;;;;33.63;17.00;;;1.40;99.90;;;;;;5047876;28;20074;-64
2023/03/08 09:58:03;;;;;;;29.40;15.88;;;1.30;99.90;;;;;;5047038;28;20049;-65
2023/03/08 10:00:33;;;;;;;35.80;16.33;;;1.30;99.90;;;;;;5033525;28;20049;-64
2023/03/08 10:03:17;;;;;;;33.25;16.95;;;1.40;99.90;;;;;;5048737;28;20073;-64
2023/03/08 10:05:52;;;;;;;31.88;16.15;;;1.30;99.90;;;;;;5046042;28;20148;-64
2023/03/08 10:08:51;;;;;;;34.35;18.05;;;1.30;99.90;;;;;;5043000;28;20041;-65
2023/03/08 10:11:30;;;;;;;29.25;16.02;;;1.40;99.90;;;;;;5037508;28;20053;-64
2023/03/08 10:14:01;;;;;;;35.50;16.85;;;1.40;99.90;;;;;;5037704;28;20037;-65
2023/03/08 10:16:33;;;;;;;28.90;15.88;;;1.40;99.90;;;;;;5040140;28;20112;-65
2023/03/08 10:19:04;;;;;;;28.35;15.75;;;1.40;99.90;;;;;;5046390;28;20514;-64
2023/03/08 10:21:33;;;;;;;32.75;16.13;;;1.50;99.90;;;;;;5040861;28;20397;-64
2023/03/08 10:24:06;;;;;;;29.95;16.13;;;1.60;99.90;;;;;;5044688;28;20041;-64
2023/03/08 10:26:31;;;;;;;28.75;15.45;;;1.60;99.90;;;;;;5047290;28;20041;-64
2023/03/08 10:28:57;;;;;;;26.45;14.48;;;1.60;99.90;;;;;;5040201;28;20036;-64
2023/03/08 10:31:28;;;;;;;31.52;15.38;;;1.70;99.90;;;;;;5044436;28;20099;-64
2023/03/08 10:34:09;;;;;;;29.30;15.55;;;1.70;99.90;;;;;;5045009;28;20141;-65
2023/03/08 10:36:56;;;;;;;29.73;15.38;;;1.80;99.90;;;;;;5052170;28;20068;-65
2023/03/08 10:39:21;;;;;;;26.88;14.82;;;1.80;99.90;;;;;;5035161;28;20044;-65
2023/03/08 10:41:53;;;;;;;34.03;16.02;;;1.80;99.90;;;;;;5042136;28;20387;-64
2023/03/08 10:44:39;;;;;;;29.80;14.65;;;1.90;99.90;;;;;;5048177;28;20062;-64
2023/03/08 10:47:26;;;;;;;29.98;15.55;;;1.80;99.90;;;;;;5048855;28;20039;-65
2023/03/08 10:50:12;;;;;;;31.35;15.90;;;1.90;99.90;;;;;;5046729;28;20052;-65
2023/03/08 10:52:38;;;;;;;32.55;16.02;;;1.80;99.90;;;;;;5036964;28;20037;-65
2023/03/08 10:55:27;;;;;;;29.73;14.90;;;1.90;99.90;;;;;;5046758;28;20490;-65
2023/03/08 10:57:58;;;;;;;24.25;12.73;;;1.90;99.90;;;;;;5047775;28;20049;-65
2023/03/08 11:00:30;;;;;;;27.92;14.32;;;1.90;99.90;;;;;;5044919;28;20374;-65
2023/03/08 11:03:23;;;;;;;24.17;13.30;;;2.00;99.90;;;;;;5043450;28;20064;-65
2023/03/08 11:05:59;;;;;;;22.70;11.68;;;2.10;99.90;;;;;;5038677;28;20132;-65
2023/03/08 11:08:37;;;;;;;22.73;12.82;;;2.20;99.90;;;;;;5048748;28;20111;-65
2023/03/08 11:11:13;;;;;;;23.50;12.55;;;2.30;99.90;;;;;;5042820;28;20045;-65
2023/03/08 11:13:45;;;;;;;24.30;12.68;;;2.40;99.90;;;;;;5046630;28;20381;-65
2023/03/08 11:16:20;;;;;;;21.65;11.60;;;2.30;99.90;;;;;;5038286;28;20033;-65
2023/03/08 11:18:55;;;;;;;23.13;12.15;;;2.40;99.90;;;;;;5036472;28;20041;-64
2023/03/08 11:21:32;;;;;;;24.55;12.15;;;2.40;99.90;;;;;;5053880;28;20045;-65
2023/03/08 11:24:10;;;;;;;27.00;14.18;;;2.40;99.90;;;;;;5050792;28;20068;-65
2023/03/08 11:27:02;;;;;;;25.33;13.48;;;2.40;99.90;;;;;;5049972;28;20048;-66
2023/03/08 11:29:49;;;;;;;26.23;13.65;;;2.40;99.90;;;;;;5047546;28;20040;-65
2023/03/08 11:32:51;;;;;;;24.77;12.75;;;2.40;99.90;;;;;;5047638;28;20464;-65
2023/03/08 11:35:54;;;;;;;26.30;12.93;;;2.50;99.90;;;;;;5033600;28;20098;-66
2023/03/08 11:38:25;;;;;;;22.30;12.07;;;2.50;99.90;;;;;;5050269;28;20481;-65
2023/03/08 11:41:03;;;;;;;19.13;10.93;;;2.50;99.90;;;;;;5035594;28;20041;-66
2023/03/08 11:44:23;;;;;;;23.02;10.90;;;2.40;99.90;;;;;;5029028;28;20049;-65
2023/03/08 11:47:02;;;;;;;23.02;11.20;;;2.60;99.90;;;;;;5008211;28;20445;-66
2023/03/08 11:49:58;;;;;;;19.00;9.30;;;2.60;99.90;;;;;;5040782;28;20094;-66
2023/03/08 11:52:36;;;;;;;20.65;10.10;;;2.60;99.90;;;;;;5042195;28;20083;-66
2023/03/08 11:55:20;;;;;;;20.20;10.50;;;2.70;99.90;;;;;;5043953;28;20048;-66
2023/03/08 11:57:55;;;;;;;21.45;11.77;;;2.70;99.90;;;;;;5049122;28;20048;-66
2023/03/08 12:00:29;;;;;;;22.10;11.07;;;2.60;99.90;;;;;;5047328;28;20048;-66
2023/03/08 12:02:59;;;;;;;22.13;11.85;;;2.60;99.90;;;;;;5043884;28;20041;-66
2023/03/08 12:05:29;;;;;;;21.92;12.13;;;2.70;99.90;;;;;;5043161;28;20045;-66
2023/03/08 12:08:23;;;;;;;23.38;11.82;;;2.70;99.90;;;;;;5047202;28;20087;-66
2023/03/08 12:11:15;;;;;;;22.67;11.40;;;2.80;99.90;;;;;;5041847;28;20049;-66
2023/03/08 12:13:46;;;;;;;23.42;11.48;;;2.90;99.90;;;;;;5042949;28;20151;-66
2023/03/08 12:16:24;;;;;;;18.42;10.95;;;2.90;99.90;;;;;;5043028;28;20033;-65
2023/03/08 12:19:18;;;;;;;16.45;10.55;;;2.90;99.90;;;;;;5035766;28;20147;-66
2023/03/08 12:21:51;;;;;;;20.10;10.75;;;3.00;99.90;;;;;;5048708;28;20044;-65
2023/03/08 12:24:37;;;;;;;19.15;10.80;;;2.90;99.90;;;;;;5048117;28;20477;-65
2023/03/08 12:27:11;;;;;;;19.75;11.27;;;3.00;99.90;;;;;;5042888;28;20033;-66
2023/03/08 12:29:45;;;;;;;21.02;11.35;;;3.10;99.90;;;;;;5033102;28;20472;-66
2023/03/08 12:32:13;;;;;;;18.90;10.77;;;3.10;99.90;;;;;;5037108;28;20038;-65
2023/03/08 12:34:41;;;;;;;23.15;10.93;;;3.10;99.90;;;;;;5047173;28;20112;-67
2023/03/08 12:37:23;;;;;;;23.30;12.05;;;3.20;99.90;;;;;;5042235;28;20372;-66
2023/03/08 12:40:07;;;;;;;22.73;11.32;;;3.30;99.90;;;;;;5038909;28;20156;-67
2023/03/08 12:42:40;;;;;;;19.73;10.15;;;3.40;99.90;;;;;;5035435;28;20619;-66
2023/03/08 12:45:10;;;;;;;17.85;10.38;;;3.50;99.90;;;;;;5043364;28;20130;-66
2023/03/08 12:47:35;;;;;;;23.67;11.52;;;3.60;99.90;;;;;;5034556;28;20048;-66
2023/03/08 12:50:16;;;;;;;22.17;11.05;;;3.70;99.90;;;;;;5051727;28;20039;-66
2023/03/08 12:52:41;;;;;;;;;;;3.80;99.90;;;;;;5038707;28;20032;-66
2023/03/08 12:55:30;;;;;;;19.58;9.60;;;3.90;99.90;;;;;;5035500;28;20412;-66